Juergen K — PBKV — position and weather

sailwx.info

Track history (hours):
 
Tides and Currents Weather Stations Pressure Air Temp Water Temp Dewpoint Dewpoint Depression Visibility Wind Speed Wind Dir Waves Ship Positions

Juergen K

Last reported at 2016-Feb-06 18:31 UTC. Time now 2016-Feb-06 18:45 UTC.
Position N 43°34' E 010°18'.

Length 89 m; draft 5.5 m.

Type: Cargo ship. MMSI: 244329000.

Date/timePositionNaut miles runAvg speedWind from/ knotsBaromVisibWave heightAir tempDewpointWater temp
2016-Feb-06 18:31N 43°34' E 010°18'0 0.0
2016-Feb-06 17:31N 43°34' E 010°18'0 0.0
2016-Feb-06 16:31N 43°34' E 010°18'0 0.0
2016-Feb-06 15:31N 43°34' E 010°18'0 0.0
2016-Feb-06 14:31N 43°34' E 010°18'0 0.0
2016-Feb-06 13:31N 43°34' E 010°18'0 0.0
2016-Feb-06 12:31N 43°34' E 010°18'0 0.0
2016-Feb-06 11:31N 43°34' E 010°18'0 0.0
2016-Feb-06 10:31N 43°34' E 010°18'0 0.0
2016-Feb-06 09:31N 43°34' E 010°18'0 0.0
2016-Feb-06 08:31N 43°34' E 010°18'0 0.0
2016-Feb-06 07:31N 43°34' E 010°18'0 0.0
2016-Feb-06 06:31N 43°34' E 010°18'0 0.0
2016-Feb-06 05:31N 43°34' E 010°18'0 0.0
2016-Feb-06 04:31N 43°34' E 010°18'0 0.0
2016-Feb-06 03:31N 43°34' E 010°18'0 0.0
2016-Feb-06 02:31N 43°34' E 010°18'0 0.0
2016-Feb-06 01:31N 43°34' E 010°18'0 0.0
2016-Feb-06 00:31N 43°34' E 010°18'0 0.0
2016-Feb-05 23:31N 43°34' E 010°18'0 0.0
2016-Feb-05 22:31N 43°34' E 010°18'0 0.0
2016-Feb-05 21:31N 43°34' E 010°18'0 0.0
2016-Feb-05 20:31N 43°34' E 010°18'0 0.0
2016-Feb-05 19:31N 43°34' E 010°18'0 0.0
2016-Feb-05 18:31N 43°34' E 010°18'0 0.0
2016-Feb-05 17:31N 43°34' E 010°18'0 0.0
2016-Feb-05 16:31N 43°34' E 010°18'0 0.0
2016-Feb-05 15:31N 43°34' E 010°18'0 0.0
2016-Feb-05 14:31N 43°34' E 010°18'0 0.0
2016-Feb-05 13:16N 43°34' E 010°18'0 0.0
2016-Feb-05 12:28N 43°34' E 010°18'0 0.0
2016-Feb-05 09:28N 43°34' E 010°18'0 0.0
2016-Feb-05 07:28N 43°34' E 010°18'0 0.0
2016-Feb-05 06:31N 43°34' E 010°18'0 0.0
2016-Feb-05 05:31N 43°34' E 010°18'0 0.0
2016-Feb-05 04:31N 43°34' E 010°18'0 0.0
2016-Feb-05 03:28N 43°34' E 010°18'0 0.0
2016-Feb-05 02:31N 43°34' E 010°18'0 0.0
2016-Feb-05 01:31N 43°34' E 010°18'0 0.0
2016-Feb-05 00:31N 43°34' E 010°18'0 0.0
2016-Feb-04 23:31N 43°34' E 010°18'0 0.0
2016-Feb-04 22:33N 43°34' E 010°18'0 0.0
2016-Feb-04 21:33N 43°34' E 010°18'0 0.0
2016-Feb-04 20:33N 43°34' E 010°18'0 0.0
2016-Feb-04 19:33N 43°34' E 010°18'0 0.0
2016-Feb-04 18:33N 43°34' E 010°18'0 0.0
2016-Feb-04 17:33N 43°34' E 010°18'1 1.4
2016-Feb-04 16:34N 43°32' E 010°17'8 7.9
2016-Feb-04 15:33N 43°27' E 010°10'9 9.3
2016-Feb-04 14:34N 43°20' E 010°01'9 8.9
2016-Feb-04 13:34N 43°16' E 009°50'10 9.6
2016-Feb-04 12:33N 43°15' E 009°37'10 9.6
2016-Feb-04 11:31N 43°14' E 009°23'177 8.7
2016-Feb-03 15:09N 43°07' E 005°21'6 9.4
2016-Feb-03 14:33N 43°09' E 005°14'9 9.3
2016-Feb-03 13:33N 43°15' E 005°04'1010.0
2016-Feb-03 12:33N 43°23' E 004°56'4 4.0
2016-Feb-03 11:33N 43°24' E 004°51'0 0.0
2016-Feb-03 10:32N 43°24' E 004°51'0 0.0
2016-Feb-03 09:32N 43°24' E 004°51'0 0.0
2016-Feb-03 08:32N 43°24' E 004°51'0 0.0
2016-Feb-03 07:32N 43°24' E 004°51'0 0.0
2016-Feb-03 06:29N 43°24' E 004°51'0 0.0
2016-Feb-03 05:29N 43°24' E 004°51'0 0.0
2016-Feb-03 04:32N 43°24' E 004°51'0 0.0
2016-Feb-03 03:32N 43°24' E 004°51'0 0.0
2016-Feb-03 02:32N 43°24' E 004°51'0 0.0
2016-Feb-03 01:32N 43°24' E 004°51'0 0.0
2016-Feb-03 00:32N 43°24' E 004°51'0 0.0
2016-Feb-02 23:33N 43°24' E 004°51'0 0.0
2016-Feb-02 22:33N 43°24' E 004°51'0 0.0
2016-Feb-02 21:33N 43°24' E 004°51'0 0.0
2016-Feb-02 20:33N 43°24' E 004°51'0 0.0
2016-Feb-02 19:33N 43°24' E 004°51'0 0.0
2016-Feb-02 18:32N 43°24' E 004°51'0 0.0
2016-Feb-02 17:33N 43°24' E 004°51'0 0.0
2016-Feb-02 16:33N 43°24' E 004°51'0 0.0
2016-Feb-02 15:33N 43°24' E 004°51'5 5.1
2016-Feb-02 14:33N 43°22' E 004°57'1110.7
2016-Feb-02 13:33N 43°12' E 005°03'1111.2
2016-Feb-02 12:33N 43°06' E 005°15'1111.5
2016-Feb-02 11:33N 42°60' E 005°29'52710.7
2016-Jan-31 10:16N 38°30' E 015°26'911.5
2016-Jan-31 09:29N 38°23' E 015°34'10 8.2
2016-Jan-31 08:17N 38°14' E 015°37'910.7
2016-Jan-31 07:25N 38°04' E 015°35'910.0
2016-Jan-31 06:33N 37°56' E 015°39'1111.1
2016-Jan-31 05:32N 37°52' E 015°52'370 9.7
2016-Jan-29 15:26N 37°23' E 023°38'1011.2
2016-Jan-29 14:33N 37°32' E 023°40'1110.5
2016-Jan-29 13:33N 37°43' E 023°41'1110.9
2016-Jan-29 12:33N 37°53' E 023°37'3 3.5
2016-Jan-29 11:33N 37°57' E 023°38'0 0.0
2016-Jan-29 10:33N 37°57' E 023°38'0 0.0
2016-Jan-29 09:32N 37°57' E 023°38'0 0.0
2016-Jan-29 08:26N 37°57' E 023°38'0 0.0
2016-Jan-29 07:32N 37°57' E 023°38'0 0.0
2016-Jan-29 06:32N 37°57' E 023°38'0 0.0
2016-Jan-29 05:29N 37°57' E 023°38'0 0.0
2016-Jan-29 04:20N 37°57' E 023°38'0 0.0
2016-Jan-29 03:32N 37°57' E 023°38'0 0.0
2016-Jan-29 02:23N 37°57' E 023°38'0 0.0
2016-Jan-29 01:32N 37°57' E 023°38'0 0.0
2016-Jan-29 00:29N 37°57' E 023°38'0 0.0
2016-Jan-28 23:32N 37°57' E 023°38'0 0.0
2016-Jan-28 22:26N 37°57' E 023°38'0 0.0
2016-Jan-28 21:32N 37°57' E 023°38'0 0.0
2016-Jan-28 20:26N 37°57' E 023°38'0 0.0
2016-Jan-28 19:32N 37°57' E 023°38'0 0.0
2016-Jan-28 18:32N 37°57' E 023°38'0 0.0
2016-Jan-28 17:29N 37°57' E 023°38'0 0.0
2016-Jan-28 16:32N 37°57' E 023°38'0 0.0
2016-Jan-28 15:32N 37°57' E 023°38'0 0.0
2016-Jan-28 14:32N 37°57' E 023°38'0 0.0
2016-Jan-28 13:32N 37°57' E 023°38'0 0.0
2016-Jan-28 12:29N 37°57' E 023°38'0 0.0
2016-Jan-28 11:26N 37°57' E 023°38'0 0.0
2016-Jan-28 10:32N 37°57' E 023°38'0 0.0
2016-Jan-28 09:20N 37°57' E 023°38'0 0.0
2016-Jan-28 08:32N 37°57' E 023°38'0 0.0
2016-Jan-28 07:32N 37°57' E 023°38'0 0.0
2016-Jan-28 06:29N 37°57' E 023°38'0 0.0
2016-Jan-28 05:32N 37°57' E 023°38'0 0.0
2016-Jan-28 04:26N 37°57' E 023°38'0 0.0
2016-Jan-28 03:32N 37°57' E 023°38'0 0.0
2016-Jan-28 02:32N 37°57' E 023°38'0 0.0
2016-Jan-28 01:32N 37°57' E 023°38'0 0.0
2016-Jan-28 00:32N 37°57' E 023°38'0 0.0
2016-Jan-27 23:32N 37°57' E 023°38'0 0.0
2016-Jan-27 22:29N 37°57' E 023°38'0 0.0
2016-Jan-27 21:32N 37°57' E 023°38'0 0.0
2016-Jan-27 20:23N 37°57' E 023°38'0 0.0
2016-Jan-27 19:32N 37°57' E 023°38'0 0.0
2016-Jan-27 18:32N 37°57' E 023°38'  
Track history (hours):
 
Tides and Currents Weather Stations Pressure Air Temp Water Temp Dewpoint Dewpoint Depression Visibility Wind Speed Wind Dir Waves Ship Positions

Juergen K

Last reported at 2016-Feb-06 18:31 UTC. Time now 2016-Feb-06 18:45 UTC.
Position N 43°34' E 010°18'.

Length 89 m; draft 5.5 m.

Type: Cargo ship. MMSI: 244329000.

Date/timePositionNaut miles runAvg speedWind from/ knotsBaromVisibWave heightAir tempDewpointWater temp
2016-Feb-06 18:31N 43°34' E 010°18'0 0.0
2016-Feb-06 17:31N 43°34' E 010°18'0 0.0
2016-Feb-06 16:31N 43°34' E 010°18'0 0.0
2016-Feb-06 15:31N 43°34' E 010°18'0 0.0
2016-Feb-06 14:31N 43°34' E 010°18'0 0.0
2016-Feb-06 13:31N 43°34' E 010°18'0 0.0
2016-Feb-06 12:31N 43°34' E 010°18'0 0.0
2016-Feb-06 11:31N 43°34' E 010°18'0 0.0
2016-Feb-06 10:31N 43°34' E 010°18'0 0.0
2016-Feb-06 09:31N 43°34' E 010°18'0 0.0
2016-Feb-06 08:31N 43°34' E 010°18'0 0.0
2016-Feb-06 07:31N 43°34' E 010°18'0 0.0
2016-Feb-06 06:31N 43°34' E 010°18'0 0.0
2016-Feb-06 05:31N 43°34' E 010°18'0 0.0
2016-Feb-06 04:31N 43°34' E 010°18'0 0.0
2016-Feb-06 03:31N 43°34' E 010°18'0 0.0
2016-Feb-06 02:31N 43°34' E 010°18'0 0.0
2016-Feb-06 01:31N 43°34' E 010°18'0 0.0
2016-Feb-06 00:31N 43°34' E 010°18'0 0.0
2016-Feb-05 23:31N 43°34' E 010°18'0 0.0
2016-Feb-05 22:31N 43°34' E 010°18'0 0.0
2016-Feb-05 21:31N 43°34' E 010°18'0 0.0
2016-Feb-05 20:31N 43°34' E 010°18'0 0.0
2016-Feb-05 19:31N 43°34' E 010°18'0 0.0
2016-Feb-05 18:31N 43°34' E 010°18'0 0.0
2016-Feb-05 17:31N 43°34' E 010°18'0 0.0
2016-Feb-05 16:31N 43°34' E 010°18'0 0.0
2016-Feb-05 15:31N 43°34' E 010°18'0 0.0
2016-Feb-05 14:31N 43°34' E 010°18'0 0.0
2016-Feb-05 13:16N 43°34' E 010°18'0 0.0
2016-Feb-05 12:28N 43°34' E 010°18'0 0.0
2016-Feb-05 09:28N 43°34' E 010°18'0 0.0
2016-Feb-05 07:28N 43°34' E 010°18'0 0.0
2016-Feb-05 06:31N 43°34' E 010°18'0 0.0
2016-Feb-05 05:31N 43°34' E 010°18'0 0.0
2016-Feb-05 04:31N 43°34' E 010°18'0 0.0
2016-Feb-05 03:28N 43°34' E 010°18'0 0.0
2016-Feb-05 02:31N 43°34' E 010°18'0 0.0
2016-Feb-05 01:31N 43°34' E 010°18'0 0.0
2016-Feb-05 00:31N 43°34' E 010°18'0 0.0
2016-Feb-04 23:31N 43°34' E 010°18'0 0.0
2016-Feb-04 22:33N 43°34' E 010°18'0 0.0
2016-Feb-04 21:33N 43°34' E 010°18'0 0.0
2016-Feb-04 20:33N 43°34' E 010°18'0 0.0
2016-Feb-04 19:33N 43°34' E 010°18'0 0.0
2016-Feb-04 18:33N 43°34' E 010°18'0 0.0
2016-Feb-04 17:33N 43°34' E 010°18'1 1.4
2016-Feb-04 16:34N 43°32' E 010°17'8 7.9
2016-Feb-04 15:33N 43°27' E 010°10'9 9.3
2016-Feb-04 14:34N 43°20' E 010°01'9 8.9
2016-Feb-04 13:34N 43°16' E 009°50'10 9.6
2016-Feb-04 12:33N 43°15' E 009°37'10 9.6
2016-Feb-04 11:31N 43°14' E 009°23'177 8.7
2016-Feb-03 15:09N 43°07' E 005°21'6 9.4
2016-Feb-03 14:33N 43°09' E 005°14'9 9.3
2016-Feb-03 13:33N 43°15' E 005°04'1010.0
2016-Feb-03 12:33N 43°23' E 004°56'4 4.0
2016-Feb-03 11:33N 43°24' E 004°51'0 0.0
2016-Feb-03 10:32N 43°24' E 004°51'0 0.0
2016-Feb-03 09:32N 43°24' E 004°51'0 0.0
2016-Feb-03 08:32N 43°24' E 004°51'0 0.0
2016-Feb-03 07:32N 43°24' E 004°51'0 0.0
2016-Feb-03 06:29N 43°24' E 004°51'0 0.0
2016-Feb-03 05:29N 43°24' E 004°51'0 0.0
2016-Feb-03 04:32N 43°24' E 004°51'0 0.0
2016-Feb-03 03:32N 43°24' E 004°51'0 0.0
2016-Feb-03 02:32N 43°24' E 004°51'0 0.0
2016-Feb-03 01:32N 43°24' E 004°51'0 0.0
2016-Feb-03 00:32N 43°24' E 004°51'0 0.0
2016-Feb-02 23:33N 43°24' E 004°51'0 0.0
2016-Feb-02 22:33N 43°24' E 004°51'0 0.0
2016-Feb-02 21:33N 43°24' E 004°51'0 0.0
2016-Feb-02 20:33N 43°24' E 004°51'0 0.0
2016-Feb-02 19:33N 43°24' E 004°51'0 0.0
2016-Feb-02 18:32N 43°24' E 004°51'0 0.0
2016-Feb-02 17:33N 43°24' E 004°51'0 0.0
2016-Feb-02 16:33N 43°24' E 004°51'0 0.0
2016-Feb-02 15:33N 43°24' E 004°51'5 5.1
2016-Feb-02 14:33N 43°22' E 004°57'1110.7
2016-Feb-02 13:33N 43°12' E 005°03'1111.2
2016-Feb-02 12:33N 43°06' E 005°15'1111.5
2016-Feb-02 11:33N 42°60' E 005°29'52710.7
2016-Jan-31 10:16N 38°30' E 015°26'911.5
2016-Jan-31 09:29N 38°23' E 015°34'10 8.2
2016-Jan-31 08:17N 38°14' E 015°37'910.7
2016-Jan-31 07:25N 38°04' E 015°35'910.0
2016-Jan-31 06:33N 37°56' E 015°39'1111.1
2016-Jan-31 05:32N 37°52' E 015°52'370 9.7
2016-Jan-29 15:26N 37°23' E 023°38'1011.2
2016-Jan-29 14:33N 37°32' E 023°40'1110.5
2016-Jan-29 13:33N 37°43' E 023°41'1110.9
2016-Jan-29 12:33N 37°53' E 023°37'3 3.5
2016-Jan-29 11:33N 37°57' E 023°38'0 0.0
2016-Jan-29 10:33N 37°57' E 023°38'0 0.0
2016-Jan-29 09:32N 37°57' E 023°38'0 0.0
2016-Jan-29 08:26N 37°57' E 023°38'0 0.0
2016-Jan-29 07:32N 37°57' E 023°38'0 0.0
2016-Jan-29 06:32N 37°57' E 023°38'0 0.0
2016-Jan-29 05:29N 37°57' E 023°38'0 0.0
2016-Jan-29 04:20N 37°57' E 023°38'0 0.0
2016-Jan-29 03:32N 37°57' E 023°38'0 0.0
2016-Jan-29 02:23N 37°57' E 023°38'0 0.0
2016-Jan-29 01:32N 37°57' E 023°38'0 0.0
2016-Jan-29 00:29N 37°57' E 023°38'0 0.0
2016-Jan-28 23:32N 37°57' E 023°38'0 0.0
2016-Jan-28 22:26N 37°57' E 023°38'0 0.0
2016-Jan-28 21:32N 37°57' E 023°38'0 0.0
2016-Jan-28 20:26N 37°57' E 023°38'0 0.0
2016-Jan-28 19:32N 37°57' E 023°38'0 0.0
2016-Jan-28 18:32N 37°57' E 023°38'0 0.0
2016-Jan-28 17:29N 37°57' E 023°38'0 0.0
2016-Jan-28 16:32N 37°57' E 023°38'0 0.0
2016-Jan-28 15:32N 37°57' E 023°38'0 0.0
2016-Jan-28 14:32N 37°57' E 023°38'0 0.0
2016-Jan-28 13:32N 37°57' E 023°38'0 0.0
2016-Jan-28 12:29N 37°57' E 023°38'0 0.0
2016-Jan-28 11:26N 37°57' E 023°38'0 0.0
2016-Jan-28 10:32N 37°57' E 023°38'0 0.0
2016-Jan-28 09:20N 37°57' E 023°38'0 0.0
2016-Jan-28 08:32N 37°57' E 023°38'0 0.0
2016-Jan-28 07:32N 37°57' E 023°38'0 0.0
2016-Jan-28 06:29N 37°57' E 023°38'0 0.0
2016-Jan-28 05:32N 37°57' E 023°38'0 0.0
2016-Jan-28 04:26N 37°57' E 023°38'0 0.0
2016-Jan-28 03:32N 37°57' E 023°38'0 0.0
2016-Jan-28 02:32N 37°57' E 023°38'0 0.0
2016-Jan-28 01:32N 37°57' E 023°38'0 0.0
2016-Jan-28 00:32N 37°57' E 023°38'0 0.0
2016-Jan-27 23:32N 37°57' E 023°38'0 0.0
2016-Jan-27 22:29N 37°57' E 023°38'0 0.0
2016-Jan-27 21:32N 37°57' E 023°38'0 0.0
2016-Jan-27 20:23N 37°57' E 023°38'0 0.0
2016-Jan-27 19:32N 37°57' E 023°38'0 0.0
2016-Jan-27 18:32N 37°57' E 023°38'  

Dump ship's entire track history